createdAt,value
2018-12-19T00:00:09.675Z,26.57
2018-12-19T00:02:38.740Z,35.78
2018-12-19T00:05:07.799Z,30.10
2018-12-19T00:07:36.872Z,37.70
2018-12-19T00:10:05.936Z,28.47
2018-12-19T00:12:35.028Z,35.67
2018-12-19T00:17:44.059Z,38.88
2018-12-19T00:20:13.100Z,27.53
2018-12-19T00:22:42.164Z,32.17
2018-12-19T00:25:11.246Z,38.55
2018-12-19T00:27:40.312Z,28.70
2018-12-19T00:30:10.290Z,32.28
2018-12-19T00:32:39.334Z,36.10
2018-12-19T00:35:08.422Z,25.17
2018-12-19T00:40:22.764Z,35.40
2018-12-19T00:42:51.801Z,26.80
2018-12-19T00:45:20.881Z,34.00
2018-12-19T00:47:49.955Z,35.05
2018-12-19T00:50:19.023Z,25.90
2018-12-19T00:52:48.110Z,32.97
2018-12-19T00:55:17.172Z,34.08
2018-12-19T00:57:46.261Z,25.37
2018-12-19T01:00:15.363Z,33.00
2018-12-19T01:02:44.453Z,36.03
2018-12-19T01:05:13.509Z,32.83
2018-12-19T01:07:42.598Z,25.10
2018-12-19T01:10:11.684Z,34.70
2018-12-19T01:12:40.754Z,27.03
2018-12-19T01:15:09.812Z,35.45
2018-12-19T01:17:38.990Z,37.10
2018-12-19T01:20:08.149Z,26.07
2018-12-19T01:22:41.892Z,37.53
2018-12-19T01:25:14.463Z,38.25
2018-12-19T01:27:43.600Z,29.77
2018-12-19T01:30:12.636Z,36.25
2018-12-19T01:32:41.708Z,39.95
2018-12-19T01:35:10.790Z,37.38
2018-12-19T01:37:39.858Z,27.70
2018-12-19T01:40:08.975Z,35.88
2018-12-19T01:42:38.046Z,35.08
2018-12-19T01:45:08.108Z,29.27
2018-12-19T01:47:37.203Z,35.30
2018-12-19T01:50:06.332Z,39.53
2018-12-19T01:52:35.393Z,27.80
2018-12-19T01:55:04.482Z,36.58
2018-12-19T01:57:33.550Z,36.35
2018-12-19T02:00:02.627Z,26.97
2018-12-19T02:02:32.651Z,32.95
2018-12-19T02:05:02.669Z,24.70
2018-12-19T02:07:31.761Z,31.80
2018-12-19T02:10:03.817Z,32.92
2018-12-19T02:12:32.882Z,26.90
2018-12-19T02:15:02.122Z,28.67
2018-12-19T02:17:31.194Z,30.93
2018-12-19T02:20:00.257Z,24.70
2018-12-19T02:25:05.603Z,32.03
2018-12-19T02:27:34.756Z,31.00
2018-12-19T02:30:03.802Z,23.63
2018-12-19T02:32:33.800Z,26.77
2018-12-19T02:37:44.222Z,27.90
2018-12-19T02:40:13.362Z,20.27
2018-12-19T02:42:42.438Z,25.77
2018-12-19T02:45:11.515Z,19.90
2018-12-19T02:47:40.595Z,26.55
2018-12-19T02:50:09.637Z,20.00
2018-12-19T02:52:38.699Z,28.62
2018-12-19T02:55:07.753Z,31.37
2018-12-19T02:57:36.832Z,21.83
2018-12-19T03:00:10.104Z,28.77
2018-12-19T03:02:39.169Z,31.37
2018-12-19T03:05:08.247Z,24.30
2018-12-19T03:07:37.386Z,31.55
2018-12-19T03:14:09.049Z,33.13
2018-12-19T03:16:38.103Z,32.80
2018-12-19T03:19:07.175Z,26.57
2018-12-19T03:21:36.277Z,32.75
2018-12-19T03:24:05.397Z,34.72
2018-12-19T03:26:34.460Z,35.33
2018-12-19T03:29:03.547Z,24.90
2018-12-19T03:31:32.610Z,31.33
2018-12-19T03:34:02.613Z,31.35
2018-12-19T03:36:31.699Z,24.20
2018-12-19T03:39:00.756Z,28.83
2018-12-19T03:41:29.815Z,29.60
2018-12-19T03:43:58.890Z,30.98
2018-12-19T03:46:27.983Z,24.20
2018-12-19T03:48:57.089Z,27.02
2018-12-19T03:51:26.163Z,23.33
2018-12-19T03:53:55.250Z,27.92
2018-12-19T03:56:24.325Z,31.85
2018-12-19T03:58:53.431Z,32.10
2018-12-19T04:01:22.509Z,24.63
2018-12-19T04:03:51.596Z,32.22
2018-12-19T04:06:20.638Z,27.27
2018-12-19T04:08:49.728Z,33.90
2018-12-19T04:11:23.939Z,37.25
2018-12-19T04:13:53.000Z,26.83
2018-12-19T04:16:22.072Z,34.97
2018-12-19T04:18:51.142Z,25.63
2018-12-19T04:21:20.210Z,32.80
2018-12-19T04:23:49.312Z,35.80
2018-12-19T04:26:18.371Z,25.50
2018-12-19T04:28:47.444Z,32.53
2018-12-19T04:31:16.504Z,22.50
2018-12-19T04:33:45.586Z,30.00
2018-12-19T04:36:14.666Z,31.62
2018-12-19T04:38:44.649Z,23.53
2018-12-19T04:42:31.321Z,29.48
2018-12-19T04:45:00.430Z,21.57
2018-12-19T04:47:29.489Z,26.75
2018-12-19T04:49:58.572Z,26.25
2018-12-19T04:52:27.630Z,19.90
2018-12-19T04:57:33.229Z,26.02
2018-12-19T05:00:02.366Z,20.33
2018-12-19T05:05:10.149Z,24.60
2018-12-19T05:07:39.231Z,24.95
2018-12-19T05:10:12.269Z,19.90
2018-12-19T05:12:37.349Z,22.70
2018-12-19T05:15:06.402Z,23.02
2018-12-19T05:17:35.463Z,18.53
2018-12-19T05:20:04.536Z,22.55
2018-12-19T05:22:44.132Z,16.93
2018-12-19T05:25:13.168Z,21.40
2018-12-19T05:27:42.233Z,17.93
2018-12-19T05:30:11.300Z,20.25
2018-12-19T05:32:40.372Z,17.83
2018-12-19T05:35:09.465Z,20.62
2018-12-19T05:37:38.543Z,21.10
2018-12-19T05:40:07.610Z,17.90
2018-12-19T05:42:36.710Z,21.42
2018-12-19T05:45:05.783Z,16.73
2018-12-19T05:47:34.934Z,20.90
2018-12-19T05:50:03.924Z,21.00
2018-12-19T05:52:33.063Z,20.35
2018-12-19T05:55:02.227Z,18.43
2018-12-19T06:00:06.547Z,25.00
2018-12-19T06:02:36.632Z,17.93
2018-12-19T06:05:05.747Z,22.70
2018-12-19T06:07:34.839Z,21.55
2018-12-19T06:10:03.935Z,20.80
2018-12-19T06:12:33.020Z,22.48
2018-12-19T06:15:02.067Z,22.90
2018-12-19T06:17:34.233Z,17.60
2018-12-19T06:20:03.298Z,21.25
2018-12-19T06:22:32.850Z,17.00
2018-12-19T06:27:41.085Z,23.58
2018-12-19T06:30:10.158Z,17.60
2018-12-19T06:32:43.098Z,22.75
2018-12-19T06:35:12.350Z,17.33
2018-12-19T06:37:41.421Z,16.60
2018-12-19T06:40:10.499Z,20.27
2018-12-19T06:42:39.588Z,21.87
2018-12-19T06:45:08.682Z,19.23
2018-12-19T06:47:38.865Z,21.73
2018-12-19T06:50:07.967Z,17.70
2018-12-19T06:52:37.018Z,21.33
2018-12-19T06:55:06.131Z,18.10
2018-12-19T06:57:35.191Z,21.10
2018-12-19T07:00:04.290Z,16.00
2018-12-19T07:02:33.332Z,15.97
2018-12-19T07:05:02.400Z,20.12
2018-12-19T07:07:31.564Z,20.90
2018-12-19T07:10:00.560Z,15.53
2018-12-19T07:12:29.638Z,15.80
2018-12-19T07:14:58.700Z,15.07
2018-12-19T07:17:33.132Z,19.70
2018-12-19T07:20:02.219Z,16.47
2018-12-19T07:22:31.326Z,19.95
2018-12-19T07:25:00.573Z,18.70
2018-12-19T07:27:29.625Z,22.60
2018-12-19T07:29:58.725Z,18.33
2018-12-19T07:32:27.784Z,17.17
2018-12-19T07:37:32.668Z,20.62
2018-12-19T07:40:02.751Z,19.07
2018-12-19T07:42:31.911Z,17.90
2018-12-19T07:47:37.650Z,23.45
2018-12-19T07:50:06.707Z,19.67
2018-12-19T07:52:35.759Z,16.70
2018-12-19T07:55:04.821Z,20.35
2018-12-19T07:57:33.904Z,17.30
2018-12-19T08:00:03.094Z,17.40
2018-12-19T08:02:32.169Z,15.60
2018-12-19T08:05:01.209Z,14.90
2018-12-19T08:07:30.259Z,17.50
2018-12-19T08:09:59.321Z,22.48
2018-12-19T08:12:28.368Z,19.80
2018-12-19T08:15:01.447Z,14.13
2018-12-19T08:17:30.508Z,13.60
2018-12-19T08:19:59.582Z,14.97
2018-12-19T08:22:29.152Z,15.30
2018-12-19T08:25:05.048Z,19.08
2018-12-19T08:27:47.405Z,15.40
2018-12-19T08:30:16.454Z,12.80
2018-12-19T08:32:45.503Z,14.97
2018-12-19T08:35:14.563Z,15.60
2018-12-19T08:37:43.625Z,16.50
2018-12-19T08:42:48.361Z,19.80
2018-12-19T08:45:17.387Z,14.40
2018-12-19T08:47:46.450Z,13.30
2018-12-19T08:50:15.509Z,15.27
2018-12-19T08:55:19.838Z,13.27
2018-12-19T08:57:48.964Z,10.30
2018-12-19T09:00:17.997Z,10.30
2018-12-19T09:02:47.156Z,11.50
2018-12-19T09:05:16.196Z,9.77
2018-12-19T09:07:45.247Z,13.60
2018-12-19T09:12:50.411Z,18.45
2018-12-19T09:15:19.464Z,13.50
2018-12-19T09:20:24.195Z,13.45
2018-12-19T09:22:53.270Z,11.98
2018-12-19T09:25:22.327Z,9.87
2018-12-19T09:27:51.970Z,9.60
2018-12-19T09:30:20.997Z,9.33
2018-12-19T09:32:52.712Z,9.83
2018-12-19T09:35:21.178Z,9.57
2018-12-19T09:37:50.229Z,9.77
2018-12-19T09:40:19.281Z,9.70
2018-12-19T09:42:48.319Z,9.90
2018-12-19T09:45:17.367Z,11.20
2018-12-19T09:47:46.504Z,8.80
2018-12-19T09:50:15.527Z,9.10
2018-12-19T09:52:44.588Z,10.60
2018-12-19T09:55:13.602Z,9.50
2018-12-19T09:57:42.666Z,8.90
2018-12-19T10:00:11.757Z,8.97
2018-12-19T10:02:41.728Z,9.30
2018-12-19T10:05:10.774Z,9.60
2018-12-19T10:07:39.841Z,9.80
2018-12-19T10:10:08.886Z,15.10
2018-12-19T10:12:37.954Z,15.50
2018-12-19T10:15:07.023Z,18.92
2018-12-19T10:17:40.890Z,13.43
2018-12-19T10:22:46.653Z,13.27
2018-12-19T10:25:20.389Z,11.10
2018-12-19T10:27:49.437Z,10.37
2018-12-19T10:30:18.498Z,10.20
2018-12-19T10:32:47.538Z,11.30
2018-12-19T10:35:16.596Z,10.57
2018-12-19T10:37:45.647Z,11.70
2018-12-19T10:42:51.374Z,11.90
2018-12-19T10:45:20.584Z,10.80
2018-12-19T10:47:49.631Z,9.10
2018-12-19T10:50:18.683Z,9.73
2018-12-19T10:52:47.727Z,8.80
2018-12-19T10:55:16.884Z,9.30
2018-12-19T10:57:45.939Z,9.07
2018-12-19T11:00:15.005Z,7.90
2018-12-19T11:02:44.077Z,9.50
2018-12-19T11:05:13.107Z,9.10
2018-12-19T11:10:18.360Z,9.90
2018-12-19T11:12:47.392Z,10.77
2018-12-19T11:15:16.611Z,10.38
2018-12-19T11:17:45.657Z,10.30
2018-12-19T11:20:14.759Z,9.93
2018-12-19T11:26:16.945Z,9.50
2018-12-19T11:28:46.321Z,8.37
2018-12-19T11:31:15.341Z,8.23
2018-12-19T11:33:44.405Z,8.60
2018-12-19T11:36:13.663Z,9.90
2018-12-19T11:38:42.759Z,9.13
2018-12-19T11:41:11.813Z,8.70
2018-12-19T11:43:40.862Z,11.43
2018-12-19T11:46:09.915Z,10.30
2018-12-19T11:48:38.958Z,12.02
2018-12-19T11:51:08.004Z,11.60
2018-12-19T11:53:37.081Z,11.70
2018-12-19T11:56:06.118Z,12.43
2018-12-19T11:58:35.211Z,13.30
2018-12-19T12:01:05.717Z,12.37
2018-12-19T12:03:34.747Z,12.20
2018-12-19T12:06:03.795Z,15.10
2018-12-19T12:08:32.842Z,12.77
2018-12-19T12:11:01.887Z,12.30
2018-12-19T12:13:30.935Z,11.63
2018-12-19T12:15:59.983Z,11.47
2018-12-19T12:18:29.044Z,11.10
2018-12-19T12:20:58.088Z,13.20
2018-12-19T12:23:27.149Z,11.60
2018-12-19T12:25:56.183Z,11.53
2018-12-19T12:28:25.250Z,11.30
2018-12-19T12:30:54.298Z,13.00
2018-12-19T12:33:23.455Z,11.43
2018-12-19T12:38:34.068Z,14.10
2018-12-19T12:40:59.254Z,14.93
2018-12-19T12:43:28.319Z,11.93
2018-12-19T12:45:57.353Z,11.57
2018-12-19T12:48:26.406Z,11.40
2018-12-19T12:50:55.445Z,11.00
2018-12-19T12:53:24.494Z,11.33
2018-12-19T12:55:53.543Z,10.53
2018-12-19T12:58:22.582Z,12.77
2018-12-19T13:00:51.650Z,15.07
2018-12-19T13:03:20.707Z,20.50
2018-12-19T13:05:49.747Z,22.10
2018-12-19T13:08:18.897Z,20.50
2018-12-19T13:10:47.949Z,22.60
2018-12-19T13:13:17.102Z,18.30
2018-12-19T13:15:46.158Z,21.70
2018-12-19T13:18:15.193Z,17.90
2018-12-19T13:20:44.284Z,18.48
2018-12-19T13:25:49.059Z,16.50
2018-12-19T13:28:18.123Z,14.73
2018-12-19T13:30:47.180Z,15.60
2018-12-19T13:33:16.218Z,15.13
2018-12-19T13:35:45.274Z,15.30
2018-12-19T13:38:14.394Z,16.75
2018-12-19T13:40:43.435Z,15.20
2018-12-19T13:43:12.484Z,17.85
2018-12-19T13:45:41.608Z,15.20
2018-12-19T13:48:10.671Z,17.23
2018-12-19T13:50:39.728Z,15.67
2018-12-19T13:53:08.770Z,16.87
2018-12-19T13:55:37.834Z,16.00
2018-12-19T13:58:07.203Z,16.43
2018-12-19T14:00:35.910Z,15.97
2018-12-19T14:03:04.963Z,14.53
2018-12-19T14:05:34.006Z,15.73
2018-12-19T14:08:03.051Z,14.70
2018-12-19T14:10:32.088Z,13.93
2018-12-19T14:13:01.158Z,17.63
2018-12-19T14:15:30.227Z,20.37
2018-12-19T14:17:59.266Z,17.70
2018-12-19T14:20:28.308Z,17.03
2018-12-19T14:22:57.359Z,16.20
2018-12-19T14:25:26.418Z,15.97
2018-12-19T14:27:55.467Z,17.70
2018-12-19T14:30:24.515Z,17.60
2018-12-19T14:32:53.595Z,15.80
2018-12-19T14:35:22.652Z,14.53
2018-12-19T14:37:51.710Z,15.40
2018-12-19T14:40:20.865Z,14.33
2018-12-19T14:42:50.789Z,14.10
2018-12-19T14:45:19.847Z,13.70
2018-12-19T14:47:48.910Z,17.20
2018-12-19T14:50:17.926Z,15.83
2018-12-19T14:52:47.119Z,17.00
2018-12-19T14:55:20.079Z,16.83
2018-12-19T14:57:49.104Z,15.63
2018-12-19T15:00:18.153Z,17.37
2018-12-19T15:02:47.236Z,17.50
2018-12-19T15:07:54.950Z,23.30
2018-12-19T15:10:24.018Z,27.50
2018-12-19T15:12:53.072Z,25.47
2018-12-19T15:15:22.131Z,26.50
2018-12-19T15:17:51.183Z,31.50
2018-12-19T15:20:27.276Z,36.33
2018-12-19T15:22:56.305Z,26.80
2018-12-19T15:25:25.352Z,23.10
2018-12-19T15:27:54.584Z,22.80
2018-12-19T15:30:23.636Z,29.12
2018-12-19T15:32:52.680Z,25.20
2018-12-19T15:35:21.723Z,23.50
2018-12-19T15:37:50.817Z,22.33
2018-12-19T15:45:34.711Z,29.87
2018-12-19T15:48:03.758Z,21.53
2018-12-19T15:50:32.799Z,19.17
2018-12-19T15:53:01.852Z,17.40
2018-12-19T15:55:30.974Z,21.77
2018-12-19T16:00:35.718Z,18.17
2018-12-19T16:03:04.851Z,22.20
2018-12-19T16:05:33.882Z,16.53
2018-12-19T16:08:02.926Z,16.70
2018-12-19T16:10:32.903Z,16.00
2018-12-19T16:13:01.949Z,17.80
2018-12-19T16:18:09.668Z,26.85
2018-12-19T16:20:38.742Z,21.90
2018-12-19T16:23:07.776Z,19.03
2018-12-19T16:25:36.827Z,17.20
2018-12-19T16:28:05.932Z,18.73
2018-12-19T16:30:34.978Z,21.00
2018-12-19T16:33:04.036Z,20.83
2018-12-19T16:35:33.331Z,19.87
2018-12-19T16:38:02.430Z,26.17
2018-12-19T16:43:10.218Z,26.05
2018-12-19T16:45:41.440Z,20.90
2018-12-19T16:48:10.488Z,20.53
2018-12-19T16:50:39.546Z,17.63
2018-12-19T16:53:08.622Z,19.43
2018-12-19T16:55:37.681Z,23.05
2018-12-19T16:58:06.737Z,19.20
2018-12-19T17:00:35.802Z,18.83
2018-12-19T17:03:04.848Z,27.17
2018-12-19T17:05:33.900Z,27.80
2018-12-19T17:08:02.984Z,36.60
2018-12-19T17:10:32.033Z,29.80
2018-12-19T17:13:01.093Z,24.60
2018-12-19T17:15:30.131Z,20.43
2018-12-19T17:17:59.271Z,19.90
2018-12-19T17:20:28.316Z,18.37
2018-12-19T17:25:33.195Z,28.42
2018-12-19T17:28:03.275Z,27.27
2018-12-19T17:30:33.092Z,16.70
2018-12-19T17:33:02.140Z,16.23
2018-12-19T17:35:31.196Z,17.23
2018-12-19T17:38:00.278Z,20.77
2018-12-19T17:40:29.356Z,17.37
2018-12-19T17:42:59.464Z,24.10
2018-12-19T17:45:27.543Z,20.47
2018-12-19T17:47:56.621Z,21.73
2018-12-19T17:50:25.667Z,30.85
2018-12-19T17:52:54.714Z,24.63
2018-12-19T17:55:23.894Z,25.10
2018-12-19T17:57:53.017Z,25.37
2018-12-19T18:00:22.084Z,25.27
2018-12-19T18:02:51.145Z,23.37
2018-12-19T18:05:20.203Z,28.35
2018-12-19T18:07:49.346Z,23.87
2018-12-19T18:10:18.406Z,28.20
2018-12-19T18:12:47.444Z,26.37
2018-12-19T18:15:16.562Z,23.20
2018-12-19T18:17:50.110Z,23.10
2018-12-19T18:20:19.148Z,19.53
2018-12-19T18:22:48.185Z,19.00
2018-12-19T18:25:17.283Z,22.20
2018-12-19T18:27:46.312Z,17.20
2018-12-19T18:30:15.442Z,12.70
2018-12-19T18:35:20.227Z,17.12
2018-12-19T18:37:49.303Z,15.10
2018-12-19T18:40:21.892Z,14.20
2018-12-19T18:42:51.526Z,13.50
2018-12-19T18:45:20.576Z,13.90
2018-12-19T18:47:49.662Z,14.40
2018-12-19T18:50:18.741Z,14.57
2018-12-19T18:52:48.691Z,12.40
2018-12-19T18:57:53.482Z,16.10
2018-12-19T19:00:32.509Z,12.73
2018-12-19T19:03:01.535Z,12.70
2018-12-19T19:05:30.598Z,13.23
2018-12-19T19:10:38.363Z,16.80
2018-12-19T19:13:07.414Z,13.77
2018-12-19T19:15:36.452Z,13.57
2018-12-19T19:18:06.444Z,13.03
2018-12-19T19:20:35.509Z,14.73
2018-12-19T19:25:40.334Z,21.27
2018-12-19T19:28:09.682Z,17.27
2018-12-19T19:30:38.919Z,16.87
2018-12-19T19:33:08.001Z,21.00
2018-12-19T19:35:37.044Z,21.30
2018-12-19T19:38:06.108Z,21.90
2018-12-19T19:40:35.161Z,29.77
2018-12-19T19:45:42.977Z,27.48
2018-12-19T19:50:49.727Z,45.40
2018-12-19T19:53:18.770Z,30.87
2018-12-19T19:55:47.831Z,24.53
2018-12-19T19:58:16.859Z,22.10
2018-12-19T20:00:45.915Z,15.13
2018-12-19T20:03:14.993Z,17.30
2018-12-19T20:05:44.053Z,17.50
2018-12-19T20:08:13.163Z,15.80
2018-12-19T20:13:20.976Z,22.10
2018-12-19T20:18:30.776Z,24.00
2018-12-19T20:21:01.715Z,21.60
2018-12-19T20:23:31.300Z,18.90
2018-12-19T20:28:39.149Z,19.90
2018-12-19T20:31:08.205Z,16.00
2018-12-19T20:33:37.261Z,15.23
2018-12-19T20:36:06.317Z,20.65
2018-12-19T20:38:35.375Z,18.40
2018-12-19T20:41:04.422Z,16.83
2018-12-19T20:43:39.777Z,15.97
2018-12-19T20:48:38.213Z,18.67
2018-12-19T20:51:07.273Z,18.15
2018-12-19T20:53:37.317Z,15.33
2018-12-19T20:56:06.468Z,13.43
2018-12-19T20:58:35.519Z,14.53
2018-12-19T21:01:04.602Z,14.60
2018-12-19T21:03:33.815Z,14.03
2018-12-19T21:06:03.814Z,13.63
2018-12-19T21:08:32.924Z,13.37
2018-12-19T21:11:03.935Z,17.15
2018-12-19T21:13:33.022Z,17.80
2018-12-19T21:16:02.102Z,14.23
2018-12-19T21:18:38.642Z,13.67
2018-12-19T21:21:07.728Z,12.40
2018-12-19T21:23:36.782Z,12.70
2018-12-19T21:26:05.918Z,12.20
2018-12-19T21:28:34.951Z,14.65
2018-12-19T21:31:04.241Z,15.07
2018-12-19T21:33:33.264Z,12.57
2018-12-19T21:36:02.327Z,12.30
2018-12-19T21:38:32.504Z,13.37
2018-12-19T21:43:37.243Z,15.77
2018-12-19T21:46:11.866Z,16.65
2018-12-19T21:48:40.901Z,14.70
2018-12-19T21:51:10.212Z,11.90
2018-12-19T21:53:40.296Z,12.33
2018-12-19T21:56:13.754Z,12.77
2018-12-19T21:58:45.249Z,12.80
2018-12-19T22:01:25.287Z,15.50
2018-12-19T22:06:45.481Z,16.30
2018-12-19T22:09:24.736Z,17.37
2018-12-19T22:12:05.271Z,14.53
2018-12-19T22:14:44.898Z,13.20
2018-12-19T22:20:25.511Z,16.53
2018-12-19T22:23:08.577Z,16.10
2018-12-19T22:25:46.852Z,13.20
2018-12-19T22:31:01.902Z,15.95
2018-12-19T22:33:42.573Z,13.40
2018-12-19T22:36:24.622Z,12.20
2018-12-19T22:41:43.522Z,15.68
2018-12-19T22:44:23.981Z,13.67
2018-12-19T22:46:58.072Z,12.83
2018-12-19T22:49:35.807Z,13.47
2018-12-19T22:52:16.421Z,16.12
2018-12-19T22:54:52.734Z,18.08
2018-12-19T22:57:30.506Z,14.00
2018-12-19T23:00:10.757Z,12.53
2018-12-19T23:02:55.752Z,12.83
2018-12-19T23:05:38.996Z,13.27
2018-12-19T23:08:20.052Z,10.70
2018-12-19T23:10:57.911Z,10.60
2018-12-19T23:13:27.595Z,13.57
2018-12-19T23:16:05.846Z,12.00
2018-12-19T23:18:46.266Z,11.50
2018-12-19T23:21:25.001Z,12.03
2018-12-19T23:24:06.085Z,11.00
2018-12-19T23:26:38.520Z,11.13
2018-12-19T23:31:59.133Z,14.13
2018-12-19T23:37:15.549Z,14.15
2018-12-19T23:39:45.805Z,13.60
2018-12-19T23:44:56.447Z,13.38
2018-12-19T23:47:36.502Z,12.10
2018-12-19T23:50:14.893Z,11.50
2018-12-19T23:52:53.053Z,14.55
2018-12-19T23:55:26.199Z,12.10
2018-12-19T23:58:08.521Z,11.83
